Time;durP1;ratioP1;P1;durP2;ratioP2;P2;SDS_P1;SDS_P2;PMS_P1;PMS_P2;Temp;Humidity;BMP_temperature;BMP_pressure;BME280_temperature;BME280_humidity;BME280_pressure;Samples;Min_cycle;Max_cycle;Signal;HPM_P1;HPM_P2
2022/05/14 00:03:39;;;;;;;13.68;8.05;;;;;;;;;;8270943;28;20105;-89
2022/05/14 00:07:44;;;;;;;11.48;7.75;;;;;;;;;;8270045;28;20050;-89
2022/05/14 00:16:08;;;;;;;13.65;7.97;;;;;;;;;;8272999;28;20045;-89
2022/05/14 00:20:12;;;;;;;9.95;7.65;;;;;;;;;;8301256;28;20053;-89
2022/05/14 00:24:17;;;;;;;15.57;6.95;;;;;;;;;;8300601;28;20053;-89
2022/05/14 00:28:21;;;;;;;13.57;7.30;;;;;;;;;;8300555;28;20046;-89
2022/05/14 00:32:24;;;;;;;14.77;6.90;;;;;;;;;;8300252;28;20413;-89
2022/05/14 00:36:26;;;;;;;12.70;6.82;;;;;;;;;;8300482;28;20061;-88
2022/05/14 00:40:33;;;;;;;9.85;6.68;;;;;;;;;;8300219;28;20042;-88
2022/05/14 00:44:36;;;;;;;8.95;6.72;;;;;;;;;;8299872;28;20119;-88
2022/05/14 00:48:40;;;;;;;10.15;7.50;;;;;;;;;;8299883;28;20080;-89
2022/05/14 00:52:44;;;;;;;9.13;6.60;;;;;;;;;;8299594;28;20049;-89
2022/05/14 00:56:53;;;;;;;12.82;6.78;;;;;;;;;;8274223;28;20522;-89
2022/05/14 01:00:56;;;;;;;10.10;6.40;;;;;;;;;;8271967;28;20053;-88
2022/05/14 01:05:00;;;;;;;10.20;7.20;;;;;;;;;;8274531;28;20049;-91
2022/05/14 01:09:06;;;;;;;10.52;7.53;;;;;;;;;;8277520;28;20042;-89
2022/05/14 01:13:10;;;;;;;10.63;7.03;;;;;;;;;;8278308;28;20046;-87
2022/05/14 01:17:14;;;;;;;11.20;7.10;;;;;;;;;;8276883;28;20494;-89
2022/05/14 01:21:24;;;;;;;11.77;7.70;;;;;;;;;;8285850;28;20052;-88
2022/05/14 01:29:57;;;;;;;12.63;7.25;;;;;;;;;;8294455;28;20049;-88
2022/05/14 01:34:02;;;;;;;12.80;7.35;;;;;;;;;;8290225;28;20042;-88
2022/05/14 01:38:05;;;;;;;10.75;7.13;;;;;;;;;;8292301;28;20536;-87
2022/05/14 01:42:08;;;;;;;9.80;6.80;;;;;;;;;;8293957;28;20502;-88
2022/05/14 01:46:12;;;;;;;9.85;6.60;;;;;;;;;;8269621;28;20053;-87
2022/05/14 01:50:15;;;;;;;12.75;7.53;;;;;;;;;;8296814;28;20053;-88
2022/05/14 01:54:17;;;;;;;13.27;8.00;;;;;;;;;;8297753;28;20462;-88
2022/05/14 01:58:38;;;;;;;10.73;6.97;;;;;;;;;;8297278;28;20065;-88
2022/05/14 02:02:43;;;;;;;11.15;7.70;;;;;;;;;;8275271;28;20050;-89
2022/05/14 02:06:45;;;;;;;11.57;7.75;;;;;;;;;;8266693;28;20493;-89
2022/05/14 02:10:48;;;;;;;13.65;7.80;;;;;;;;;;8266334;28;20046;-88
2022/05/14 02:14:54;;;;;;;10.45;7.80;;;;;;;;;;8289162;28;20065;-88
2022/05/14 02:18:58;;;;;;;15.30;7.28;;;;;;;;;;8296577;28;20046;-88
2022/05/14 02:23:00;;;;;;;12.75;8.57;;;;;;;;;;8267675;28;20057;-88
2022/05/14 02:27:03;;;;;;;15.07;7.72;;;;;;;;;;8266948;28;20100;-88
2022/05/14 02:31:06;;;;;;;13.38;8.38;;;;;;;;;;8266014;28;20042;-87
2022/05/14 02:35:10;;;;;;;10.88;8.35;;;;;;;;;;8279500;28;20121;-89
2022/05/14 02:39:13;;;;;;;12.93;8.45;;;;;;;;;;8297202;28;20068;-88
2022/05/14 02:43:16;;;;;;;10.00;7.20;;;;;;;;;;8297144;28;20050;-88
2022/05/14 02:47:19;;;;;;;10.93;7.40;;;;;;;;;;8265697;28;20054;-87
2022/05/14 02:51:23;;;;;;;14.00;7.90;;;;;;;;;;8265776;28;20049;-88
2022/05/14 02:55:26;;;;;;;13.00;8.23;;;;;;;;;;8266439;28;20065;-88
2022/05/14 02:59:28;;;;;;;12.80;8.05;;;;;;;;;;8265666;28;20046;-87
2022/05/14 03:03:31;;;;;;;11.48;8.05;;;;;;;;;;8265443;28;20050;-88
2022/05/14 03:07:35;;;;;;;11.75;7.80;;;;;;;;;;8265555;28;20050;-88
2022/05/14 03:11:39;;;;;;;10.70;7.75;;;;;;;;;;8267612;28;20043;-87
2022/05/14 03:15:43;;;;;;;10.48;7.63;;;;;;;;;;8271623;28;20047;-88
2022/05/14 03:19:46;;;;;;;15.48;7.72;;;;;;;;;;8271520;28;20054;-88
2022/05/14 03:23:50;;;;;;;9.88;7.25;;;;;;;;;;8278541;28;20050;-88
2022/05/14 03:27:53;;;;;;;12.07;7.88;;;;;;;;;;8271427;28;20047;-87
2022/05/14 03:31:57;;;;;;;13.30;8.38;;;;;;;;;;8271372;28;20073;-88
2022/05/14 03:35:59;;;;;;;11.02;7.93;;;;;;;;;;8285468;28;20046;-87
2022/05/14 03:40:05;;;;;;;12.63;8.30;;;;;;;;;;8302583;28;20494;-87
2022/05/14 03:44:08;;;;;;;11.55;8.70;;;;;;;;;;8289211;28;20486;-88
2022/05/14 03:48:11;;;;;;;11.68;8.32;;;;;;;;;;8278492;28;20449;-88
2022/05/14 03:52:14;;;;;;;18.05;9.32;;;;;;;;;;8295818;28;20144;-89
2022/05/14 03:56:18;;;;;;;13.57;9.00;;;;;;;;;;8283733;28;20046;-88
2022/05/14 04:00:21;;;;;;;12.60;8.45;;;;;;;;;;8295791;28;20046;-87
2022/05/14 04:04:24;;;;;;;13.23;8.85;;;;;;;;;;8289981;28;20046;-87
2022/05/14 04:08:27;;;;;;;16.48;9.23;;;;;;;;;;8303193;28;20053;-87
2022/05/14 04:12:31;;;;;;;15.27;9.43;;;;;;;;;;8273012;28;20543;-88
2022/05/14 04:16:34;;;;;;;12.85;9.43;;;;;;;;;;8291102;28;20047;-89
2022/05/14 04:20:37;;;;;;;14.32;9.18;;;;;;;;;;8291552;28;20414;-89
2022/05/14 04:24:39;;;;;;;18.73;10.40;;;;;;;;;;8300414;28;20053;-88
2022/05/14 04:28:43;;;;;;;14.93;10.02;;;;;;;;;;8301189;28;20108;-91
2022/05/14 04:32:47;;;;;;;15.23;10.05;;;;;;;;;;8275064;28;20050;-89
2022/05/14 04:36:49;;;;;;;14.52;10.45;;;;;;;;;;8276259;28;20466;-89
2022/05/14 04:40:52;;;;;;;16.13;11.70;;;;;;;;;;8271201;28;20126;-89
2022/05/14 04:44:57;;;;;;;15.02;10.23;;;;;;;;;;8276534;28;20568;-89
2022/05/14 04:49:00;;;;;;;16.02;9.63;;;;;;;;;;8269341;28;20049;-90
2022/05/14 04:53:03;;;;;;;22.33;11.00;;;;;;;;;;8268883;28;20047;-90
2022/05/14 04:57:06;;;;;;;16.00;10.48;;;;;;;;;;8274665;28;20482;-90
2022/05/14 05:01:11;;;;;;;18.70;9.55;;;;;;;;;;8268913;28;20051;-90
2022/05/14 05:05:13;;;;;;;13.30;8.38;;;;;;;;;;8286724;28;20053;-90
2022/05/14 05:09:16;;;;;;;14.05;8.93;;;;;;;;;;8299205;28;20108;-89
2022/05/14 05:13:21;;;;;;;14.95;9.73;;;;;;;;;;8294798;28;20053;-90
2022/05/14 05:17:25;;;;;;;17.88;9.50;;;;;;;;;;8285159;28;20434;-89
2022/05/14 05:21:27;;;;;;;14.82;9.07;;;;;;;;;;8269614;28;20050;-90
2022/05/14 05:25:30;;;;;;;16.20;8.77;;;;;;;;;;8268145;28;20042;-90
2022/05/14 05:29:33;;;;;;;12.68;7.80;;;;;;;;;;8267787;28;20061;-90
2022/05/14 05:33:37;;;;;;;15.48;8.77;;;;;;;;;;8282906;28;20050;-91
2022/05/14 05:37:41;;;;;;;13.20;8.60;;;;;;;;;;8298749;28;20049;-91
2022/05/14 05:41:44;;;;;;;16.90;9.05;;;;;;;;;;8291930;28;20413;-90
2022/05/14 05:45:49;;;;;;;14.38;8.70;;;;;;;;;;8297930;28;20053;-91
2022/05/14 05:49:53;;;;;;;12.05;7.40;;;;;;;;;;8298136;28;20100;-90
2022/05/14 05:58:28;;;;;;;10.05;6.80;;;;;;;;;;8170237;28;20115;-94
2022/05/14 06:02:32;;;;;;;9.65;6.53;;;;;;;;;;8318073;28;20014;-91
2022/05/14 06:06:41;;;;;;;19.85;9.57;;;;;;;;;;8325469;28;20057;-89
2022/05/14 06:10:46;;;;;;;11.60;7.75;;;;;;;;;;8337910;28;20080;-90
2022/05/14 06:14:49;;;;;;;14.20;6.93;;;;;;;;;;8338451;28;20021;-92
2022/05/14 06:18:52;;;;;;;11.07;6.20;;;;;;;;;;8339096;28;20046;-91
2022/05/14 06:22:56;;;;;;;11.85;6.50;;;;;;;;;;8329477;28;20035;-91
2022/05/14 06:26:59;;;;;;;14.60;6.50;;;;;;;;;;8300461;28;20073;-92
2022/05/14 06:31:02;;;;;;;11.82;6.60;;;;;;;;;;8297107;28;20046;-92
2022/05/14 06:35:05;;;;;;;12.15;6.35;;;;;;;;;;8285042;28;20046;-89
2022/05/14 06:39:10;;;;;;;10.00;6.22;;;;;;;;;;8287751;28;20482;-89
2022/05/14 06:43:15;;;;;;;11.35;5.25;;;;;;;;;;8272689;28;20050;-92
2022/05/14 06:47:18;;;;;;;9.75;4.53;;;;;;;;;;8290153;28;20049;-91
2022/05/14 06:51:24;;;;;;;7.55;3.90;;;;;;;;;;8295771;28;20050;-87
2022/05/14 06:55:32;;;;;;;9.07;4.35;;;;;;;;;;8294056;28;20048;-88
2022/05/14 06:59:35;;;;;;;5.78;3.88;;;;;;;;;;8273274;28;20046;-89
2022/05/14 07:08:00;;;;;;;6.63;3.50;;;;;;;;;;8303418;28;20046;-88
2022/05/14 07:12:08;;;;;;;8.93;3.40;;;;;;;;;;8303172;28;20137;-87
2022/05/14 07:16:11;;;;;;;7.88;3.50;;;;;;;;;;8303194;28;20117;-88
2022/05/14 07:20:13;;;;;;;6.28;3.40;;;;;;;;;;8303501;28;20394;-87
2022/05/14 07:24:19;;;;;;;7.00;3.03;;;;;;;;;;8303034;28;20474;-88
2022/05/14 07:28:23;;;;;;;6.18;2.83;;;;;;;;;;8294856;28;20390;-87
2022/05/14 07:32:25;;;;;;;5.55;3.05;;;;;;;;;;8302318;28;20046;-87
2022/05/14 07:36:32;;;;;;;6.70;2.80;;;;;;;;;;8302361;28;20050;-86
2022/05/14 07:40:38;;;;;;;6.25;2.50;;;;;;;;;;8270688;28;20058;-88
2022/05/14 07:44:45;;;;;;;6.32;2.70;;;;;;;;;;8270261;28;20058;-88
2022/05/14 07:48:49;;;;;;;5.47;2.50;;;;;;;;;;8270005;28;20046;-86
2022/05/14 07:52:52;;;;;;;5.85;2.40;;;;;;;;;;8269842;28;20057;-87
2022/05/14 07:56:56;;;;;;;5.53;2.20;;;;;;;;;;8270693;28;20399;-88
2022/05/14 08:01:00;;;;;;;8.27;2.92;;;;;;;;;;8273719;28;20152;-87
2022/05/14 08:05:04;;;;;;;5.13;2.22;;;;;;;;;;8268016;28;20459;-86
2022/05/14 08:09:08;;;;;;;7.25;2.47;;;;;;;;;;8269588;28;20100;-87
2022/05/14 08:13:15;;;;;;;7.03;2.70;;;;;;;;;;8268632;28;20050;-88
2022/05/14 08:17:19;;;;;;;5.55;2.60;;;;;;;;;;8269883;28;20388;-87
2022/05/14 08:25:42;;;;;;;13.90;4.57;;;;;;;;;;8281791;28;20125;-88
2022/05/14 08:29:47;;;;;;;29.13;9.95;;;;;;;;;;8268785;28;20530;-87
2022/05/14 08:33:51;;;;;;;29.38;10.35;;;;;;;;;;8276904;28;20054;-89
2022/05/14 08:37:56;;;;;;;14.43;7.30;;;;;;;;;;8271411;28;20050;-89
2022/05/14 08:42:00;;;;;;;37.53;14.27;;;;;;;;;;8273627;28;20058;-87
2022/05/14 08:46:03;;;;;;;15.20;7.85;;;;;;;;;;8279970;28;20062;-84
2022/05/14 08:50:09;;;;;;;14.70;6.00;;;;;;;;;;8280600;28;20580;-86
2022/05/14 08:54:14;;;;;;;15.02;6.65;;;;;;;;;;8280032;28;20046;-88
2022/05/14 08:58:34;;;;;;;16.60;9.02;;;;;;;;;;8265383;28;20043;-87
2022/05/14 09:02:43;;;;;;;;;;;;;;;;;;8264020;28;20046;-88
2022/05/14 09:06:55;;;;;;;45.92;19.05;;;;;;;;;;8265551;28;19950;-88
2022/05/14 09:11:11;;;;;;;19.23;7.30;;;;;;;;;;8267200;28;20059;-87
2022/05/14 09:15:17;;;;;;;22.00;7.63;;;;;;;;;;8269846;28;20050;-87
2022/05/14 09:19:27;;;;;;;18.42;6.38;;;;;;;;;;8264136;28;20054;-87
2022/05/14 09:23:43;;;;;;;28.08;11.98;;;;;;;;;;8266124;28;20560;-86
2022/05/14 09:27:52;;;;;;;53.05;18.05;;;;;;;;;;8269490;28;20058;-88
2022/05/14 09:32:01;;;;;;;30.70;10.95;;;;;;;;;;8270457;28;20529;-88
2022/05/14 09:36:20;;;;;;;9.07;3.88;;;;;;;;;;8264258;28;20050;-86
2022/05/14 09:40:28;;;;;;;20.00;7.38;;;;;;;;;;8265431;28;20050;-88
2022/05/14 09:44:45;;;;;;;40.13;13.02;;;;;;;;;;8262346;28;20410;-87
2022/05/14 09:49:06;;;;;;;36.72;14.45;;;;;;;;;;8288451;28;20069;-89
2022/05/14 09:53:15;;;;;;;19.27;8.43;;;;;;;;;;8262227;28;20417;-88
2022/05/14 09:57:39;;;;;;;16.38;5.65;;;;;;;;;;8291247;28;20112;-86
2022/05/14 10:01:50;;;;;;;36.60;14.90;;;;;;;;;;8266196;28;20462;-86
2022/05/14 10:06:06;;;;;;;23.65;12.32;;;;;;;;;;8263494;28;20069;-89
2022/05/14 10:10:37;;;;;;;35.80;16.60;;;;;;;;;;8262872;28;20053;-87
2022/05/14 10:15:13;;;;;;;28.05;11.10;;;;;;;;;;8283751;28;20502;-87
2022/05/14 10:19:57;;;;;;;13.20;5.85;;;;;;;;;;8261086;28;20141;-86
2022/05/14 10:28:59;;;;;;;19.27;5.97;;;;;;;;;;8292176;28;20060;-86
2022/05/14 10:33:12;;;;;;;6.93;3.65;;;;;;;;;;8287583;28;20065;-84
2022/05/14 10:37:27;;;;;;;9.02;4.35;;;;;;;;;;8287188;28;20046;-86
2022/05/14 10:41:36;;;;;;;12.20;6.32;;;;;;;;;;8292133;28;20076;-86
2022/05/14 10:45:44;;;;;;;9.57;3.90;;;;;;;;;;8286344;28;20794;-86
2022/05/14 10:49:58;;;;;;;7.80;3.65;;;;;;;;;;8260090;28;20104;-85
2022/05/14 10:54:04;;;;;;;10.32;3.97;;;;;;;;;;8259277;28;20089;-87
2022/05/14 10:58:08;;;;;;;6.20;3.35;;;;;;;;;;8260172;28;20058;-87
2022/05/14 11:02:17;;;;;;;12.15;3.67;;;;;;;;;;8259759;28;20057;-87
2022/05/14 11:06:30;;;;;;;13.95;4.50;;;;;;;;;;8260336;28;20072;-87
2022/05/14 11:10:35;;;;;;;26.83;8.30;;;;;;;;;;8261036;28;20513;-89
2022/05/14 11:14:41;;;;;;;9.93;3.83;;;;;;;;;;8260859;28;20081;-89
2022/05/14 11:18:47;;;;;;;16.02;8.13;;;;;;;;;;8260699;28;20100;-84
2022/05/14 11:23:03;;;;;;;8.43;3.85;;;;;;;;;;8260640;28;20140;-85
2022/05/14 11:27:09;;;;;;;10.00;3.50;;;;;;;;;;8260203;28;20058;-85
2022/05/14 11:31:19;;;;;;;37.85;20.83;;;;;;;;;;8260232;28;20051;-84
2022/05/14 11:35:23;;;;;;;16.58;9.02;;;;;;;;;;8289134;28;20048;-84
2022/05/14 11:39:31;;;;;;;15.18;8.45;;;;;;;;;;8296869;28;20152;-86
2022/05/14 11:43:36;;;;;;;6.20;2.55;;;;;;;;;;8296064;28;20065;-85
2022/05/14 11:47:58;;;;;;;8.77;4.93;;;;;;;;;;8287682;28;20049;-85
2022/05/14 11:52:11;;;;;;;6.20;3.72;;;;;;;;;;8265311;28;20046;-86
2022/05/14 11:56:21;;;;;;;28.15;16.17;;;;;;;;;;8265901;28;20050;-86
2022/05/14 12:00:30;;;;;;;12.13;3.85;;;;;;;;;;8265790;28;20054;-85
2022/05/14 12:04:39;;;;;;;15.07;6.25;;;;;;;;;;8265585;28;20053;-84
2022/05/14 12:09:07;;;;;;;20.42;10.50;;;;;;;;;;8265983;28;20100;-86
2022/05/14 12:13:21;;;;;;;22.95;9.27;;;;;;;;;;8285756;28;20054;-84
2022/05/14 12:17:26;;;;;;;11.45;4.30;;;;;;;;;;8289455;28;20054;-85
2022/05/14 12:21:29;;;;;;;10.32;4.13;;;;;;;;;;8264560;28;20096;-84
2022/05/14 12:25:37;;;;;;;11.43;3.47;;;;;;;;;;8264573;28;20494;-83
2022/05/14 12:29:52;;;;;;;6.80;3.50;;;;;;;;;;8277945;28;20046;-83
2022/05/14 12:33:58;;;;;;;6.18;2.80;;;;;;;;;;8251247;28;20414;-86
2022/05/14 12:38:05;;;;;;;12.75;2.95;;;;;;;;;;8268481;28;20060;-85
2022/05/14 12:42:09;;;;;;;6.65;3.10;;;;;;;;;;8264763;28;20046;-86
2022/05/14 12:46:14;;;;;;;8.18;3.00;;;;;;;;;;8265962;28;20073;-86
2022/05/14 12:50:21;;;;;;;7.07;3.90;;;;;;;;;;8264434;28;20146;-84
2022/05/14 12:54:33;;;;;;;4.65;3.00;;;;;;;;;;8264064;28;20042;-84
2022/05/14 12:58:38;;;;;;;10.10;4.07;;;;;;;;;;8263930;28;20222;-86
2022/05/14 13:02:47;;;;;;;11.30;3.38;;;;;;;;;;8263618;28;20054;-86
2022/05/14 13:06:52;;;;;;;6.82;3.40;;;;;;;;;;8268249;28;20065;-85
2022/05/14 13:10:58;;;;;;;10.15;3.45;;;;;;;;;;8263948;28;20065;-85
2022/05/14 13:15:04;;;;;;;10.68;3.58;;;;;;;;;;8263267;28;20042;-84
2022/05/14 13:19:32;;;;;;;15.38;3.90;;;;;;;;;;8263465;28;20054;-85
2022/05/14 13:23:37;;;;;;;13.65;4.20;;;;;;;;;;8262919;28;20057;-87
2022/05/14 13:27:58;;;;;;;12.52;4.60;;;;;;;;;;8263375;28;20046;-86
2022/05/14 13:32:12;;;;;;;16.75;4.68;;;;;;;;;;8287971;28;20132;-87
2022/05/14 13:40:58;;;;;;;12.80;4.32;;;;;;;;;;8193524;29;20094;-87
2022/05/14 13:45:06;;;;;;;7.88;3.50;;;;;;;;;;8193357;29;20145;-86
2022/05/14 13:49:23;;;;;;;9.13;3.42;;;;;;;;;;8192581;29;20082;-87
2022/05/14 13:53:34;;;;;;;5.78;3.45;;;;;;;;;;8186455;29;20058;-83
2022/05/14 13:57:40;;;;;;;7.53;3.58;;;;;;;;;;8187127;29;20462;-86
2022/05/14 14:01:48;;;;;;;8.25;3.47;;;;;;;;;;8188126;28;20448;-85
2022/05/14 14:05:52;;;;;;;9.27;3.00;;;;;;;;;;8188861;29;20066;-84
2022/05/14 14:09:57;;;;;;;12.55;3.17;;;;;;;;;;8214946;28;20085;-85
2022/05/14 14:14:02;;;;;;;10.50;3.30;;;;;;;;;;8273279;28;20636;-84
2022/05/14 14:18:06;;;;;;;9.07;3.42;;;;;;;;;;8261383;28;20054;-86
2022/05/14 14:22:14;;;;;;;11.48;2.75;;;;;;;;;;8261331;28;20852;-86
2022/05/14 14:26:21;;;;;;;11.77;3.30;;;;;;;;;;8261958;28;20525;-85
2022/05/14 14:30:26;;;;;;;11.75;2.90;;;;;;;;;;8271209;28;20046;-85
2022/05/14 14:34:30;;;;;;;10.00;3.10;;;;;;;;;;8290848;28;20049;-86
2022/05/14 14:38:32;;;;;;;8.30;3.10;;;;;;;;;;8261744;28;20058;-84
2022/05/14 14:42:37;;;;;;;7.03;2.78;;;;;;;;;;8261095;28;20058;-86
2022/05/14 14:46:41;;;;;;;11.23;3.33;;;;;;;;;;8260349;28;20054;-83
2022/05/14 14:50:45;;;;;;;8.05;3.33;;;;;;;;;;8261366;28;20150;-85
2022/05/14 14:54:48;;;;;;;12.55;3.40;;;;;;;;;;8278268;28;20058;-85
2022/05/14 14:58:52;;;;;;;10.45;3.28;;;;;;;;;;8283906;28;20042;-84
2022/05/14 15:02:59;;;;;;;10.93;3.22;;;;;;;;;;8271542;28;20051;-84
2022/05/14 15:07:03;;;;;;;9.10;2.88;;;;;;;;;;8283443;28;20053;-84
2022/05/14 15:11:07;;;;;;;9.25;3.08;;;;;;;;;;8303650;28;20042;-84
2022/05/14 15:15:12;;;;;;;7.43;3.25;;;;;;;;;;8303277;28;20054;-84
2022/05/14 15:19:16;;;;;;;13.50;4.18;;;;;;;;;;8283673;28;20046;-84
2022/05/14 15:23:20;;;;;;;10.85;3.63;;;;;;;;;;8267502;28;20039;-85
2022/05/14 15:27:24;;;;;;;11.65;3.55;;;;;;;;;;8278969;28;20049;-85
2022/05/14 15:31:46;;;;;;;12.32;3.65;;;;;;;;;;8272807;28;20554;-85
2022/05/14 15:35:51;;;;;;;9.30;4.00;;;;;;;;;;8274700;28;20054;-84
2022/05/14 15:39:54;;;;;;;11.40;4.43;;;;;;;;;;8278001;28;20058;-85
2022/05/14 15:44:00;;;;;;;13.48;4.10;;;;;;;;;;8289288;28;20096;-84
2022/05/14 15:48:13;;;;;;;18.55;4.50;;;;;;;;;;8283985;28;20073;-84
2022/05/14 15:52:17;;;;;;;13.00;5.35;;;;;;;;;;8285891;28;20529;-85
2022/05/14 15:56:22;;;;;;;14.50;4.60;;;;;;;;;;8287462;28;20252;-86
2022/05/14 16:00:27;;;;;;;11.35;4.15;;;;;;;;;;8279612;28;20054;-86
2022/05/14 16:04:33;;;;;;;16.17;4.35;;;;;;;;;;8286084;28;20042;-86
2022/05/14 16:08:38;;;;;;;13.95;4.10;;;;;;;;;;8292699;28;20065;-85
2022/05/14 16:17:03;;;;;;;9.60;3.90;;;;;;;;;;8289981;28;20049;-84
2022/05/14 16:21:10;;;;;;;12.25;3.80;;;;;;;;;;8295466;28;20145;-87
2022/05/14 16:25:14;;;;;;;13.27;4.80;;;;;;;;;;8295435;28;20104;-84
2022/05/14 16:29:18;;;;;;;14.00;4.03;;;;;;;;;;8274327;28;20513;-86
2022/05/14 16:33:22;;;;;;;13.93;3.30;;;;;;;;;;8285055;28;20054;-85
2022/05/14 16:37:39;;;;;;;11.90;4.60;;;;;;;;;;8268950;28;20053;-84
2022/05/14 16:41:50;;;;;;;14.10;3.22;;;;;;;;;;8269107;28;20045;-85
2022/05/14 16:45:53;;;;;;;14.88;3.80;;;;;;;;;;8273725;28;20153;-85
2022/05/14 16:49:56;;;;;;;14.07;3.67;;;;;;;;;;8289341;28;20050;-85
2022/05/14 16:54:04;;;;;;;13.85;4.57;;;;;;;;;;8264899;28;20502;-87
2022/05/14 16:58:08;;;;;;;13.13;3.90;;;;;;;;;;8294708;28;20050;-87
2022/05/14 17:02:11;;;;;;;16.65;4.50;;;;;;;;;;8294982;28;20181;-83
2022/05/14 17:06:15;;;;;;;11.70;4.25;;;;;;;;;;8295290;28;20498;-85
2022/05/14 17:10:23;;;;;;;12.45;4.00;;;;;;;;;;8284102;28;20050;-87
2022/05/14 17:14:29;;;;;;;13.43;4.90;;;;;;;;;;8268825;28;20050;-86
2022/05/14 17:18:58;;;;;;;15.70;5.95;;;;;;;;;;8265505;28;20399;-85
2022/05/14 17:23:06;;;;;;;12.93;5.07;;;;;;;;;;8288258;28;20447;-85
2022/05/14 17:27:10;;;;;;;19.73;6.28;;;;;;;;;;8263531;28;20046;-84
2022/05/14 17:31:18;;;;;;;17.67;6.55;;;;;;;;;;8262279;28;20082;-86
2022/05/14 17:35:22;;;;;;;11.52;4.63;;;;;;;;;;8262681;28;20050;-88
2022/05/14 17:43:59;;;;;;;15.27;4.60;;;;;;;;;;8263902;28;20077;-85
2022/05/14 17:48:07;;;;;;;16.05;5.03;;;;;;;;;;8268976;28;20046;-87
2022/05/14 17:52:27;;;;;;;15.38;4.95;;;;;;;;;;8262016;28;20149;-85
2022/05/14 17:56:36;;;;;;;15.05;6.00;;;;;;;;;;8286745;28;20057;-85
2022/05/14 18:00:41;;;;;;;19.52;7.35;;;;;;;;;;8288414;28;20464;-86
2022/05/14 18:04:45;;;;;;;16.83;5.65;;;;;;;;;;8266793;28;20050;-86
2022/05/14 18:08:49;;;;;;;18.95;7.07;;;;;;;;;;8266946;28;20047;-86
2022/05/14 18:12:52;;;;;;;18.67;6.68;;;;;;;;;;8293251;28;20046;-87
2022/05/14 18:17:00;;;;;;;22.92;8.48;;;;;;;;;;8287713;28;20046;-85
2022/05/14 18:21:05;;;;;;;27.80;10.52;;;;;;;;;;8293681;28;20046;-86
2022/05/14 18:25:25;;;;;;;32.83;10.88;;;;;;;;;;8290374;28;20073;-85
2022/05/14 18:29:37;;;;;;;27.75;10.77;;;;;;;;;;8292640;28;20052;-86
2022/05/14 18:38:50;;;;;;;18.35;7.55;;;;;;;;;;8280595;28;20053;-85
2022/05/14 18:43:16;;;;;;;8.32;4.75;;;;;;;;;;8275979;28;20050;-85
2022/05/14 18:47:20;;;;;;;17.83;5.80;;;;;;;;;;8282378;28;20645;-85
2022/05/14 18:51:26;;;;;;;13.10;5.70;;;;;;;;;;8277106;28;20047;-86
2022/05/14 18:55:29;;;;;;;21.05;6.43;;;;;;;;;;8276985;28;20046;-85
2022/05/14 18:59:32;;;;;;;15.05;5.93;;;;;;;;;;8276634;28;20077;-85
2022/05/14 19:03:35;;;;;;;12.13;5.70;;;;;;;;;;8276648;28;20100;-84
2022/05/14 19:07:39;;;;;;;10.98;5.07;;;;;;;;;;8259400;28;20053;-84
2022/05/14 19:11:43;;;;;;;10.75;4.93;;;;;;;;;;8276511;28;20046;-84
2022/05/14 19:15:46;;;;;;;12.60;4.75;;;;;;;;;;8276198;28;20054;-85
2022/05/14 19:19:50;;;;;;;16.05;5.15;;;;;;;;;;8278507;28;20049;-86
2022/05/14 19:24:31;;;;;;;11.95;5.00;;;;;;;;;;8295060;28;20052;-86
2022/05/14 19:28:37;;;;;;;;;;;;;;;;;;8290729;28;20046;-86
2022/05/14 19:32:40;;;;;;;12.10;5.68;;;;;;;;;;8275688;28;20461;-85
2022/05/14 19:36:47;;;;;;;17.17;7.72;;;;;;;;;;8280276;28;20054;-85
2022/05/14 19:40:57;;;;;;;12.95;6.55;;;;;;;;;;8277557;28;20046;-84
2022/05/14 19:45:07;;;;;;;15.07;6.97;;;;;;;;;;8274268;28;20089;-85
2022/05/14 19:49:15;;;;;;;15.52;6.00;;;;;;;;;;8294999;28;20049;-85
2022/05/14 19:53:23;;;;;;;13.27;5.90;;;;;;;;;;8270300;28;20045;-86
2022/05/14 19:57:37;;;;;;;14.25;6.75;;;;;;;;;;8274965;28;20042;-85
2022/05/14 20:01:47;;;;;;;14.80;6.82;;;;;;;;;;8268955;28;20050;-85
2022/05/14 20:05:57;;;;;;;19.65;9.18;;;;;;;;;;8269385;28;20109;-84
2022/05/14 20:10:02;;;;;;;20.53;9.17;;;;;;;;;;8293779;28;20049;-84
2022/05/14 20:14:08;;;;;;;18.30;8.55;;;;;;;;;;8301096;28;20099;-85
2022/05/14 20:22:50;;;;;;;15.20;6.38;;;;;;;;;;8201497;28;20065;-85
2022/05/14 20:26:58;;;;;;;24.10;16.23;;;;;;;;;;8300606;28;20068;-85
2022/05/14 20:31:03;;;;;;;14.68;8.63;;;;;;;;;;8299992;28;20053;-84
2022/05/14 20:35:11;;;;;;;18.48;9.90;;;;;;;;;;8300727;28;20050;-85
2022/05/14 20:39:31;;;;;;;20.20;11.70;;;;;;;;;;8300351;28;20057;-84
2022/05/14 20:43:37;;;;;;;17.75;12.15;;;;;;;;;;8282474;28;20046;-84
2022/05/14 20:47:41;;;;;;;23.00;10.10;;;;;;;;;;8269507;28;20458;-84
2022/05/14 20:51:45;;;;;;;12.13;7.22;;;;;;;;;;8285238;28;20477;-84
2022/05/14 20:55:48;;;;;;;11.77;6.25;;;;;;;;;;8300236;28;20133;-83
2022/05/14 20:59:51;;;;;;;13.18;6.95;;;;;;;;;;8290588;28;20057;-83
2022/05/14 21:03:55;;;;;;;18.20;6.85;;;;;;;;;;8268531;28;20050;-84
2022/05/14 21:07:59;;;;;;;13.68;5.97;;;;;;;;;;8268418;28;20451;-84
2022/05/14 21:12:03;;;;;;;21.08;11.18;;;;;;;;;;8268705;28;20057;-83
2022/05/14 21:16:07;;;;;;;19.10;9.45;;;;;;;;;;8267924;28;20046;-83
2022/05/14 21:20:12;;;;;;;17.25;7.93;;;;;;;;;;8268567;28;20494;-84
2022/05/14 21:24:18;;;;;;;17.73;7.57;;;;;;;;;;8268436;28;20487;-83
2022/05/14 21:28:21;;;;;;;18.88;7.50;;;;;;;;;;8268420;28;20046;-83
2022/05/14 21:32:24;;;;;;;15.48;8.55;;;;;;;;;;8275536;28;20073;-84
2022/05/14 21:40:49;;;;;;;12.25;6.50;;;;;;;;;;8299033;28;20046;-84
2022/05/14 21:44:51;;;;;;;15.05;8.30;;;;;;;;;;8276349;28;20062;-83
2022/05/14 21:48:54;;;;;;;18.27;8.45;;;;;;;;;;8267719;28;20077;-84
2022/05/14 21:53:00;;;;;;;16.67;8.50;;;;;;;;;;8266938;28;20438;-85
2022/05/14 21:57:03;;;;;;;13.82;7.97;;;;;;;;;;8267005;28;20135;-84
2022/05/14 22:01:24;;;;;;;18.63;7.97;;;;;;;;;;8267262;28;20387;-85
2022/05/14 22:05:30;;;;;;;15.27;7.93;;;;;;;;;;8267260;28;20527;-85
2022/05/14 22:09:34;;;;;;;22.05;9.15;;;;;;;;;;8266818;28;20502;-85
2022/05/14 22:13:37;;;;;;;15.45;8.63;;;;;;;;;;8266252;28;20046;-85
2022/05/14 22:17:40;;;;;;;19.45;8.93;;;;;;;;;;8265919;28;20050;-85
2022/05/14 22:21:43;;;;;;;18.88;9.27;;;;;;;;;;8282005;28;20054;-85
2022/05/14 22:25:47;;;;;;;16.77;9.55;;;;;;;;;;8297697;28;20537;-87
2022/05/14 22:29:50;;;;;;;19.10;9.50;;;;;;;;;;8297809;28;20053;-85
2022/05/14 22:33:53;;;;;;;16.42;8.77;;;;;;;;;;8297130;28;20470;-87
2022/05/14 22:37:56;;;;;;;17.98;9.70;;;;;;;;;;8297323;28;20050;-86
2022/05/14 22:42:00;;;;;;;20.05;9.88;;;;;;;;;;8296861;28;20046;-86
2022/05/14 22:46:04;;;;;;;19.05;9.85;;;;;;;;;;8296699;28;20081;-86
2022/05/14 22:50:07;;;;;;;16.20;9.30;;;;;;;;;;8297005;28;20418;-86
2022/05/14 22:54:11;;;;;;;17.95;9.10;;;;;;;;;;8296882;28;20054;-85
2022/05/14 22:58:15;;;;;;;15.30;9.02;;;;;;;;;;8265043;28;20054;-86
2022/05/14 23:02:18;;;;;;;14.20;8.48;;;;;;;;;;8284081;28;20053;-87
2022/05/14 23:06:20;;;;;;;14.35;8.98;;;;;;;;;;8296794;28;20061;-85
2022/05/14 23:10:24;;;;;;;16.10;8.73;;;;;;;;;;8296446;28;20049;-86
2022/05/14 23:14:28;;;;;;;14.95;7.82;;;;;;;;;;8293180;28;20046;-86
2022/05/14 23:18:31;;;;;;;13.75;8.63;;;;;;;;;;8265771;28;20471;-85
2022/05/14 23:22:34;;;;;;;15.75;8.40;;;;;;;;;;8265453;28;20046;-86
2022/05/14 23:26:37;;;;;;;17.55;8.40;;;;;;;;;;8265460;28;20107;-86
2022/05/14 23:30:42;;;;;;;12.23;8.02;;;;;;;;;;8270800;28;20058;-86
2022/05/14 23:34:45;;;;;;;15.32;7.43;;;;;;;;;;8271244;28;20050;-86
2022/05/14 23:38:48;;;;;;;15.07;8.30;;;;;;;;;;8271246;28;20664;-85
2022/05/14 23:42:53;;;;;;;17.02;8.18;;;;;;;;;;8271048;28;20066;-86
2022/05/14 23:46:57;;;;;;;14.13;8.10;;;;;;;;;;8270802;28;20061;-86
2022/05/14 23:51:00;;;;;;;17.02;8.23;;;;;;;;;;8270844;28;20104;-86
2022/05/14 23:55:03;;;;;;;11.90;7.78;;;;;;;;;;8271031;28;20430;-86
